createdAt,value
2017-10-28T00:00:29.489Z,0
2017-10-28T00:01:09.944Z,0
2017-10-28T00:01:50.313Z,0
2017-10-28T00:02:30.714Z,0
2017-10-28T00:03:11.048Z,0
2017-10-28T00:03:51.500Z,0
2017-10-28T00:04:31.895Z,0
2017-10-28T00:05:12.337Z,0
2017-10-28T00:05:52.750Z,0
2017-10-28T00:06:33.280Z,0
2017-10-28T00:07:13.719Z,0
2017-10-28T00:07:54.282Z,0
2017-10-28T00:08:34.658Z,0
2017-10-28T00:09:15.177Z,0
2017-10-28T00:09:55.652Z,0
2017-10-28T00:10:36.080Z,0
2017-10-28T00:11:16.431Z,0
2017-10-28T00:11:56.913Z,0
2017-10-28T00:12:37.301Z,0
2017-10-28T00:13:17.679Z,0
2017-10-28T00:13:58.126Z,0
2017-10-28T00:14:38.548Z,0
2017-10-28T00:15:18.947Z,0
2017-10-28T00:15:59.307Z,0
2017-10-28T00:16:39.703Z,0
2017-10-28T00:17:20.167Z,0
2017-10-28T00:18:00.498Z,0
2017-10-28T00:18:40.936Z,0
2017-10-28T00:19:21.358Z,0
2017-10-28T00:20:01.771Z,0
2017-10-28T00:20:42.179Z,0
2017-10-28T00:21:22.607Z,0
2017-10-28T00:22:03.051Z,0
2017-10-28T00:22:43.417Z,0
2017-10-28T00:23:23.868Z,0
2017-10-28T00:24:04.215Z,0
2017-10-28T00:24:44.640Z,0
2017-10-28T00:25:25.111Z,0
2017-10-28T00:26:05.534Z,0
2017-10-28T00:26:45.923Z,0
2017-10-28T00:27:26.378Z,0
2017-10-28T00:28:06.754Z,0
2017-10-28T00:28:47.140Z,0
2017-10-28T00:29:27.565Z,0
2017-10-28T00:30:07.940Z,0
2017-10-28T00:30:48.369Z,0
2017-10-28T00:31:28.714Z,0
2017-10-28T00:32:09.169Z,0
2017-10-28T00:32:49.641Z,0
2017-10-28T00:33:30.072Z,0
2017-10-28T00:34:10.578Z,0
2017-10-28T00:34:51.009Z,0
2017-10-28T00:35:31.378Z,0
2017-10-28T00:36:11.838Z,0
2017-10-28T00:36:52.247Z,0
2017-10-28T00:37:32.695Z,0
2017-10-28T00:38:13.125Z,0
2017-10-28T00:38:53.511Z,0
2017-10-28T00:39:33.947Z,0
2017-10-28T00:40:14.370Z,0
2017-10-28T00:40:54.849Z,0
2017-10-28T00:41:35.283Z,0
2017-10-28T00:42:15.670Z,0
2017-10-28T00:42:56.141Z,0
2017-10-28T00:43:36.600Z,0
2017-10-28T00:44:17.102Z,0
2017-10-28T00:44:57.566Z,0
2017-10-28T00:45:38.077Z,0
2017-10-28T00:46:18.528Z,0
2017-10-28T00:46:58.910Z,0
2017-10-28T00:47:39.269Z,0
2017-10-28T00:48:19.739Z,0
2017-10-28T00:49:00.089Z,0
2017-10-28T00:49:40.522Z,0
2017-10-28T00:50:21.051Z,0
2017-10-28T00:51:01.562Z,0
2017-10-28T00:51:41.930Z,0
2017-10-28T00:52:22.346Z,0
2017-10-28T00:53:02.834Z,0
2017-10-28T00:53:43.303Z,0
2017-10-28T00:54:23.708Z,0
2017-10-28T00:55:04.107Z,0
2017-10-28T00:55:44.488Z,0
2017-10-28T00:56:25.032Z,0
2017-10-28T00:57:05.466Z,0
2017-10-28T00:57:45.860Z,0
2017-10-28T00:58:26.277Z,0
2017-10-28T00:59:06.699Z,0
2017-10-28T00:59:47.159Z,0
2017-10-28T01:00:27.487Z,0
2017-10-28T01:01:08.036Z,0
2017-10-28T01:01:48.381Z,0
2017-10-28T01:02:28.794Z,0
2017-10-28T01:03:09.418Z,0
2017-10-28T01:03:49.966Z,0
2017-10-28T01:04:30.392Z,0
2017-10-28T01:05:10.842Z,0
2017-10-28T01:05:51.235Z,0
2017-10-28T01:06:31.609Z,0
2017-10-28T01:07:12.039Z,0
2017-10-28T01:07:52.422Z,0
2017-10-28T01:08:32.895Z,0
2017-10-28T01:09:13.343Z,0
2017-10-28T01:09:53.769Z,0
2017-10-28T01:10:34.157Z,0
2017-10-28T01:11:14.669Z,0
2017-10-28T01:11:55.068Z,0
2017-10-28T01:12:35.472Z,0
2017-10-28T01:13:15.914Z,0
2017-10-28T01:13:56.351Z,0
2017-10-28T01:14:36.741Z,0
2017-10-28T01:15:17.171Z,0
2017-10-28T01:15:57.548Z,0
2017-10-28T01:16:37.940Z,0
2017-10-28T01:17:18.354Z,0
2017-10-28T01:17:58.879Z,0
2017-10-28T01:18:39.313Z,0
2017-10-28T01:19:19.715Z,0
2017-10-28T01:20:00.113Z,0
2017-10-28T01:20:40.511Z,0
2017-10-28T01:21:20.953Z,0
2017-10-28T01:22:01.376Z,0
2017-10-28T01:22:41.798Z,0
2017-10-28T01:23:22.154Z,0
2017-10-28T01:24:02.547Z,0
2017-10-28T01:24:43.010Z,0
2017-10-28T01:25:23.426Z,0
2017-10-28T01:26:03.799Z,0
2017-10-28T01:26:44.199Z,0
2017-10-28T01:27:24.727Z,0
2017-10-28T01:28:05.077Z,0
2017-10-28T01:28:45.489Z,0
2017-10-28T01:29:25.904Z,0
2017-10-28T01:30:06.247Z,0
2017-10-28T01:30:46.741Z,0
2017-10-28T01:31:27.168Z,0
2017-10-28T01:32:07.497Z,0
2017-10-28T01:32:47.919Z,0
2017-10-28T01:33:28.330Z,0
2017-10-28T01:34:08.720Z,0
2017-10-28T01:34:49.209Z,0
2017-10-28T01:35:29.667Z,0
2017-10-28T01:36:10.058Z,0
2017-10-28T01:36:50.451Z,0
2017-10-28T01:37:30.851Z,0
2017-10-28T01:38:11.261Z,0
2017-10-28T01:38:51.653Z,0
2017-10-28T01:39:32.075Z,0
2017-10-28T01:40:12.528Z,0
2017-10-28T01:40:52.956Z,0
2017-10-28T01:41:33.329Z,0
2017-10-28T01:42:13.742Z,0
2017-10-28T01:42:54.185Z,0
2017-10-28T01:43:34.537Z,0
2017-10-28T01:44:14.963Z,0
2017-10-28T01:44:55.398Z,0
2017-10-28T01:45:35.809Z,0
2017-10-28T01:46:16.144Z,0
2017-10-28T01:46:56.592Z,0
2017-10-28T01:47:37.051Z,0
2017-10-28T01:48:17.443Z,0
2017-10-28T01:48:57.845Z,0
2017-10-28T01:49:38.289Z,0
2017-10-28T01:50:18.694Z,0
2017-10-28T01:50:59.158Z,0
2017-10-28T01:51:39.486Z,0
2017-10-28T01:52:19.910Z,0
2017-10-28T01:53:00.389Z,0
2017-10-28T01:53:40.791Z,0
2017-10-28T01:54:21.159Z,0
2017-10-28T01:55:01.625Z,0
2017-10-28T01:55:42.032Z,0
2017-10-28T01:56:22.472Z,0
2017-10-28T01:57:02.885Z,0
2017-10-28T01:57:43.332Z,0
2017-10-28T01:58:23.702Z,0
2017-10-28T01:59:04.283Z,0
2017-10-28T01:59:44.682Z,0
2017-10-28T02:00:25.258Z,0
2017-10-28T02:01:05.689Z,0
2017-10-28T02:01:46.071Z,0
2017-10-28T02:02:26.464Z,0
2017-10-28T02:03:06.868Z,0
2017-10-28T02:03:47.239Z,0
2017-10-28T02:04:27.637Z,0
2017-10-28T02:05:08.125Z,0
2017-10-28T02:05:48.641Z,0
2017-10-28T02:06:28.980Z,0
2017-10-28T02:07:09.429Z,0
2017-10-28T02:07:49.853Z,0
2017-10-28T02:08:30.244Z,0
2017-10-28T02:09:10.658Z,0
2017-10-28T02:09:51.140Z,0
2017-10-28T02:10:31.528Z,0
2017-10-28T02:11:12.008Z,0
2017-10-28T02:11:52.434Z,0
2017-10-28T02:12:32.801Z,0
2017-10-28T02:13:13.236Z,0
2017-10-28T02:13:53.613Z,0
2017-10-28T02:14:33.987Z,0
2017-10-28T02:15:14.480Z,0
2017-10-28T02:15:54.869Z,0
2017-10-28T02:16:35.274Z,0
2017-10-28T02:17:15.724Z,0
2017-10-28T02:17:56.136Z,0
2017-10-28T02:18:36.566Z,0
2017-10-28T02:19:17.052Z,0
2017-10-28T02:19:57.449Z,0
2017-10-28T02:20:37.819Z,0
2017-10-28T02:21:18.270Z,0
2017-10-28T02:21:58.786Z,0
2017-10-28T02:22:39.150Z,0
2017-10-28T02:23:19.553Z,0
2017-10-28T02:23:59.993Z,0
2017-10-28T02:24:40.368Z,0
2017-10-28T02:25:20.775Z,0
2017-10-28T02:26:01.224Z,0
2017-10-28T02:26:41.647Z,0
2017-10-28T02:27:22.111Z,0
2017-10-28T02:28:02.521Z,0
2017-10-28T02:28:42.891Z,0
2017-10-28T02:29:23.320Z,0
2017-10-28T02:30:03.746Z,0
2017-10-28T02:30:44.174Z,0
2017-10-28T02:31:24.494Z,0
2017-10-28T02:32:04.984Z,0
2017-10-28T02:32:45.400Z,0
2017-10-28T02:33:25.897Z,0
2017-10-28T02:34:06.255Z,0
2017-10-28T02:34:46.641Z,0
2017-10-28T02:35:27.041Z,0
2017-10-28T02:36:07.414Z,0
2017-10-28T02:36:47.840Z,0
2017-10-28T02:37:28.215Z,0
2017-10-28T02:38:08.712Z,0
2017-10-28T02:38:49.096Z,0
2017-10-28T02:39:29.516Z,0
2017-10-28T02:40:09.979Z,0
2017-10-28T02:40:50.387Z,0
2017-10-28T02:41:30.833Z,0
2017-10-28T02:42:11.293Z,0
2017-10-28T02:42:51.688Z,0
2017-10-28T02:43:32.016Z,0
2017-10-28T02:44:12.519Z,0
2017-10-28T02:44:52.891Z,0
2017-10-28T02:45:33.260Z,0
2017-10-28T02:46:13.701Z,0
2017-10-28T02:46:54.080Z,0
2017-10-28T02:47:34.499Z,0
2017-10-28T02:48:14.858Z,0
2017-10-28T02:48:55.433Z,0
2017-10-28T02:49:35.902Z,0
2017-10-28T02:50:16.387Z,0
2017-10-28T02:50:56.841Z,0
2017-10-28T02:51:37.193Z,0
2017-10-28T02:52:17.588Z,0
2017-10-28T02:52:57.980Z,0
2017-10-28T02:53:38.396Z,0
2017-10-28T02:54:18.843Z,0
2017-10-28T02:54:59.202Z,0
2017-10-28T02:55:39.612Z,0
2017-10-28T02:56:19.972Z,0
2017-10-28T02:57:00.379Z,0
2017-10-28T02:57:40.772Z,0
2017-10-28T02:58:21.186Z,0
2017-10-28T02:59:01.627Z,0
2017-10-28T02:59:42.023Z,0
2017-10-28T03:00:22.401Z,0
2017-10-28T03:01:02.845Z,0
2017-10-28T03:01:43.209Z,0
2017-10-28T03:02:23.634Z,0
2017-10-28T03:03:04.041Z,0
2017-10-28T03:03:44.429Z,0
2017-10-28T03:04:24.835Z,0
2017-10-28T03:05:05.344Z,0
2017-10-28T03:05:45.705Z,0
2017-10-28T03:06:26.170Z,0
2017-10-28T03:07:06.574Z,0
2017-10-28T03:07:46.933Z,0
2017-10-28T03:08:27.412Z,0
2017-10-28T03:09:07.799Z,0
2017-10-28T03:09:48.278Z,0
2017-10-28T03:10:28.719Z,0
2017-10-28T03:11:09.112Z,0
2017-10-28T03:11:49.501Z,0
2017-10-28T03:12:29.853Z,0
2017-10-28T03:13:10.298Z,0
2017-10-28T03:13:50.732Z,0
2017-10-28T03:14:31.153Z,0
2017-10-28T03:15:11.637Z,0
2017-10-28T03:15:52.049Z,0
2017-10-28T03:16:32.462Z,0
2017-10-28T03:17:12.854Z,0
2017-10-28T03:17:53.237Z,0
2017-10-28T03:18:33.673Z,0
2017-10-28T03:19:14.136Z,0
2017-10-28T03:19:54.530Z,0
2017-10-28T03:20:35.072Z,0
2017-10-28T03:21:15.531Z,0
2017-10-28T03:21:56.007Z,0
2017-10-28T03:22:36.474Z,0
2017-10-28T03:23:16.851Z,0
2017-10-28T03:23:57.274Z,0
2017-10-28T03:24:37.800Z,0
2017-10-28T03:25:18.173Z,0
2017-10-28T03:25:58.595Z,0
2017-10-28T03:26:39.059Z,0
2017-10-28T03:27:19.452Z,0
2017-10-28T03:27:59.831Z,0
2017-10-28T03:28:40.294Z,0
2017-10-28T03:29:20.691Z,0
2017-10-28T03:30:01.085Z,0
2017-10-28T03:30:41.608Z,0
2017-10-28T03:31:21.967Z,0
2017-10-28T03:32:02.344Z,0
2017-10-28T03:32:42.846Z,0
2017-10-28T03:33:23.252Z,0
2017-10-28T03:34:03.703Z,0
2017-10-28T03:34:44.096Z,0
2017-10-28T03:35:24.551Z,0
2017-10-28T03:36:04.933Z,0
2017-10-28T03:36:45.393Z,0
2017-10-28T03:37:26.052Z,0
2017-10-28T03:38:06.584Z,0
2017-10-28T03:38:46.995Z,0
2017-10-28T03:39:27.545Z,0
2017-10-28T03:40:07.948Z,0
2017-10-28T03:40:48.425Z,0
2017-10-28T03:41:28.844Z,0
2017-10-28T03:42:09.177Z,0
2017-10-28T03:42:49.681Z,0
2017-10-28T03:43:30.028Z,0
2017-10-28T03:44:10.521Z,0
2017-10-28T03:44:50.989Z,0
2017-10-28T03:45:31.296Z,0
2017-10-28T03:46:11.759Z,0
2017-10-28T03:46:52.264Z,0
2017-10-28T03:47:32.653Z,0
2017-10-28T03:48:13.119Z,0
2017-10-28T03:48:53.468Z,0
2017-10-28T03:49:33.866Z,0
2017-10-28T03:50:14.364Z,0
2017-10-28T03:50:54.778Z,0
2017-10-28T03:51:35.187Z,0
2017-10-28T03:52:15.660Z,0
2017-10-28T03:52:56.174Z,0
2017-10-28T03:53:36.570Z,0
2017-10-28T03:54:16.930Z,0
2017-10-28T03:54:57.359Z,0
2017-10-28T03:55:37.794Z,0
2017-10-28T03:56:18.231Z,0
2017-10-28T03:56:58.905Z,0
2017-10-28T03:57:39.309Z,0
2017-10-28T03:58:19.748Z,0
2017-10-28T03:59:00.184Z,0
2017-10-28T03:59:40.624Z,0
2017-10-28T04:00:21.040Z,0
2017-10-28T04:01:01.473Z,0
2017-10-28T04:41:15.038Z,0
2017-10-28T04:41:55.344Z,0
2017-10-28T04:42:35.836Z,0
2017-10-28T04:43:16.314Z,0
2017-10-28T04:43:57.167Z,0
2017-10-28T04:44:37.122Z,0
2017-10-28T04:45:17.543Z,0
2017-10-28T04:45:58.014Z,0
2017-10-28T04:46:38.423Z,0
2017-10-28T04:47:18.794Z,0
2017-10-28T04:47:59.197Z,0
2017-10-28T04:48:39.609Z,0
2017-10-28T04:49:20.084Z,0
2017-10-28T04:50:00.542Z,0
2017-10-28T04:50:40.942Z,0
2017-10-28T04:51:21.302Z,0
2017-10-28T04:52:01.820Z,0
2017-10-28T04:52:42.202Z,0
2017-10-28T04:53:22.631Z,0
2017-10-28T04:54:02.953Z,0
2017-10-28T04:54:43.435Z,0
2017-10-28T04:55:23.804Z,0
2017-10-28T04:56:04.265Z,0
2017-10-28T04:56:44.636Z,0
2017-10-28T04:57:25.084Z,0
2017-10-28T04:58:05.465Z,0
2017-10-28T04:58:45.828Z,0
2017-10-28T04:59:26.253Z,0
2017-10-28T05:00:06.682Z,0
2017-10-28T05:00:47.087Z,0
2017-10-28T05:01:27.488Z,0
2017-10-28T05:02:07.925Z,0
2017-10-28T05:02:48.302Z,0
2017-10-28T05:03:28.631Z,0
2017-10-28T05:04:09.108Z,0
2017-10-28T05:04:49.567Z,0
2017-10-28T05:05:29.992Z,0
2017-10-28T05:06:10.412Z,0
2017-10-28T05:06:50.921Z,0
2017-10-28T05:07:31.410Z,0
2017-10-28T05:08:11.755Z,0
2017-10-28T05:08:52.203Z,0
2017-10-28T05:09:32.554Z,0
2017-10-28T05:10:12.949Z,0
2017-10-28T05:10:53.370Z,0
2017-10-28T05:11:33.789Z,0
2017-10-28T05:12:14.286Z,0
2017-10-28T05:12:54.733Z,0
2017-10-28T05:13:35.112Z,0
2017-10-28T05:14:15.506Z,0
2017-10-28T05:14:55.921Z,0
2017-10-28T05:15:36.386Z,0
2017-10-28T05:16:16.941Z,0
2017-10-28T05:16:57.374Z,0
2017-10-28T05:17:37.851Z,0
2017-10-28T05:18:18.265Z,0
2017-10-28T05:18:58.741Z,0
2017-10-28T05:19:39.196Z,0
2017-10-28T05:20:19.661Z,0
2017-10-28T05:21:00.085Z,0
2017-10-28T05:21:40.516Z,0
2017-10-28T05:22:20.995Z,0
2017-10-28T05:23:01.325Z,0
2017-10-28T05:23:41.775Z,0
2017-10-28T05:24:22.172Z,0
2017-10-28T05:25:02.557Z,0
2017-10-28T05:25:42.955Z,0
2017-10-28T05:26:23.385Z,0
2017-10-28T05:27:03.728Z,0
2017-10-28T05:27:44.143Z,0
2017-10-28T05:28:24.519Z,0
2017-10-28T05:29:04.969Z,0
2017-10-28T05:29:45.373Z,0
2017-10-28T05:30:25.832Z,0
2017-10-28T05:31:06.343Z,0
2017-10-28T05:31:46.765Z,0
2017-10-28T05:32:27.166Z,0
2017-10-28T05:33:07.615Z,0
2017-10-28T05:33:48.072Z,0
2017-10-28T05:34:28.462Z,0
2017-10-28T05:35:08.910Z,0
2017-10-28T05:35:49.336Z,0
2017-10-28T05:36:29.711Z,0
2017-10-28T05:37:10.130Z,0
2017-10-28T05:37:50.611Z,0
2017-10-28T05:38:31.050Z,0
2017-10-28T05:39:11.409Z,0
2017-10-28T05:39:51.932Z,0
2017-10-28T05:40:32.307Z,0
2017-10-28T05:41:12.804Z,0
2017-10-28T05:41:53.145Z,0
2017-10-28T05:42:33.550Z,0
2017-10-28T05:43:13.987Z,0
2017-10-28T05:43:54.475Z,0
2017-10-28T05:44:34.860Z,0
2017-10-28T05:45:15.193Z,0
2017-10-28T05:45:55.583Z,0
2017-10-28T05:46:36.018Z,0
2017-10-28T05:47:16.484Z,0
2017-10-28T05:47:56.828Z,0
2017-10-28T05:48:37.210Z,0
2017-10-28T05:49:17.652Z,0
2017-10-28T05:49:58.077Z,0
2017-10-28T05:50:38.459Z,0
2017-10-28T05:51:18.929Z,0
2017-10-28T05:51:59.212Z,0
2017-10-28T05:52:39.720Z,0
2017-10-28T05:53:20.193Z,0
2017-10-28T05:54:00.665Z,0
2017-10-28T05:54:41.043Z,0
2017-10-28T05:55:21.407Z,0
2017-10-28T05:56:01.843Z,0
2017-10-28T05:56:42.283Z,4
2017-10-28T05:57:22.669Z,4
2017-10-28T05:58:03.109Z,4
2017-10-28T05:58:43.526Z,4
2017-10-28T05:59:23.928Z,0
2017-10-28T06:00:04.368Z,4
2017-10-28T06:00:44.761Z,4
2017-10-28T06:01:25.174Z,4
2017-10-28T06:02:05.554Z,8
2017-10-28T06:02:45.919Z,4
2017-10-28T06:03:26.402Z,4
2017-10-28T06:04:06.807Z,8
2017-10-28T06:04:47.325Z,4
2017-10-28T06:05:27.751Z,8
2017-10-28T06:06:08.132Z,8
2017-10-28T06:06:48.506Z,12
2017-10-28T06:07:28.960Z,8
2017-10-28T06:08:09.342Z,8
2017-10-28T06:08:49.806Z,12
2017-10-28T06:09:30.216Z,12
2017-10-28T06:10:10.622Z,12
2017-10-28T06:10:51.049Z,12
2017-10-28T06:11:31.535Z,16
2017-10-28T06:12:11.955Z,12
2017-10-28T06:12:52.340Z,16
2017-10-28T06:13:32.781Z,16
2017-10-28T06:14:13.158Z,16
2017-10-28T06:14:53.573Z,20
2017-10-28T06:15:33.990Z,20
2017-10-28T06:16:14.430Z,20
2017-10-28T06:16:54.766Z,20
2017-10-28T06:17:35.207Z,20
2017-10-28T06:18:15.610Z,20
2017-10-28T06:18:56.059Z,20
2017-10-28T06:19:36.411Z,20
2017-10-28T06:20:16.884Z,20
2017-10-28T06:20:57.297Z,20
2017-10-28T06:21:37.753Z,20
2017-10-28T06:22:18.207Z,20
2017-10-28T06:22:58.546Z,20
2017-10-28T06:23:39.015Z,20
2017-10-28T06:24:19.449Z,24
2017-10-28T06:24:59.783Z,28
2017-10-28T06:25:40.195Z,32
2017-10-28T06:26:20.620Z,40
2017-10-28T06:27:01.012Z,44
2017-10-28T06:27:41.369Z,48
2017-10-28T06:28:21.782Z,56
2017-10-28T06:29:02.229Z,56
2017-10-28T06:29:42.599Z,64
2017-10-28T06:30:22.989Z,64
2017-10-28T06:31:03.410Z,60
2017-10-28T06:31:43.775Z,68
2017-10-28T06:32:24.167Z,76
2017-10-28T06:33:04.602Z,84
2017-10-28T06:33:44.989Z,92
2017-10-28T06:34:25.348Z,96
2017-10-28T06:35:05.838Z,100
2017-10-28T06:35:46.217Z,104
2017-10-28T06:36:26.644Z,104
2017-10-28T06:37:06.981Z,112
2017-10-28T06:37:47.428Z,116
2017-10-28T06:38:27.805Z,120
2017-10-28T06:39:08.320Z,124
2017-10-28T06:39:48.761Z,128
2017-10-28T06:40:29.244Z,128
2017-10-28T06:41:09.623Z,132
2017-10-28T06:41:50.018Z,136
2017-10-28T06:42:30.440Z,140
2017-10-28T06:43:10.916Z,144
2017-10-28T06:43:51.319Z,148
2017-10-28T06:44:31.762Z,160
2017-10-28T06:45:12.244Z,164
2017-10-28T06:45:52.679Z,160
2017-10-28T06:46:33.055Z,152
2017-10-28T06:47:13.503Z,140
2017-10-28T06:47:53.864Z,136
2017-10-28T06:48:34.257Z,136
2017-10-28T06:49:14.734Z,140
2017-10-28T06:49:55.147Z,140
2017-10-28T06:50:35.589Z,132
2017-10-28T06:51:15.967Z,136
2017-10-28T06:51:56.432Z,140
2017-10-28T06:52:36.810Z,144
2017-10-28T06:53:17.225Z,136
2017-10-28T06:53:57.639Z,120
2017-10-28T06:54:38.106Z,112
2017-10-28T06:55:18.472Z,108
2017-10-28T06:55:58.875Z,112
2017-10-28T06:56:39.355Z,108
2017-10-28T06:57:19.711Z,108
2017-10-28T06:58:00.068Z,100
2017-10-28T06:58:40.665Z,100
2017-10-28T06:59:21.005Z,104
2017-10-28T07:00:01.500Z,108
2017-10-28T07:00:41.838Z,112
2017-10-28T07:01:22.277Z,112
2017-10-28T07:02:02.696Z,120
2017-10-28T07:02:43.113Z,132
2017-10-28T07:03:23.561Z,124
2017-10-28T07:04:04.730Z,112
2017-10-28T07:04:45.237Z,112
2017-10-28T07:05:26.999Z,112
2017-10-28T07:06:07.062Z,116
2017-10-28T07:06:47.441Z,116
2017-10-28T07:07:27.843Z,120
2017-10-28T07:08:08.247Z,132
2017-10-28T07:08:48.658Z,144
2017-10-28T07:09:29.111Z,152
2017-10-28T07:10:09.459Z,152
2017-10-28T07:10:49.917Z,156
2017-10-28T07:11:30.306Z,156
2017-10-28T07:12:11.537Z,160
2017-10-28T07:12:53.585Z,148
2017-10-28T07:13:33.970Z,140
2017-10-28T07:14:15.425Z,148
2017-10-28T07:14:56.457Z,144
2017-10-28T07:15:36.884Z,160
2017-10-28T07:16:17.348Z,164
2017-10-28T07:16:58.205Z,164
2017-10-28T07:17:38.750Z,192
2017-10-28T07:18:19.206Z,208
2017-10-28T07:18:59.614Z,256
2017-10-28T07:19:40.102Z,248
2017-10-28T07:20:21.164Z,236
2017-10-28T07:21:02.182Z,228
2017-10-28T07:21:43.547Z,264
2017-10-28T07:22:24.179Z,268
2017-10-28T07:23:05.369Z,300
2017-10-28T07:23:45.847Z,304
2017-10-28T07:24:29.136Z,316
2017-10-28T07:25:09.814Z,304
2017-10-28T07:25:50.104Z,308
2017-10-28T07:26:30.602Z,308
2017-10-28T07:27:11.299Z,304
2017-10-28T07:27:52.048Z,332
2017-10-28T07:28:32.478Z,320
2017-10-28T07:29:13.691Z,320
2017-10-28T07:29:54.136Z,360
2017-10-28T07:30:34.680Z,380
2017-10-28T07:31:14.996Z,372
2017-10-28T07:31:55.393Z,356
2017-10-28T07:32:36.414Z,336
2017-10-28T07:33:16.276Z,324
2017-10-28T07:33:57.008Z,324
2017-10-28T07:34:37.451Z,336
2017-10-28T07:35:18.340Z,344
2017-10-28T07:35:58.749Z,376
2017-10-28T07:36:39.294Z,380
2017-10-28T07:37:20.912Z,416
2017-10-28T07:38:01.370Z,456
2017-10-28T07:38:46.559Z,492
2017-10-28T07:39:26.953Z,536
2017-10-28T07:40:07.705Z,540
2017-10-28T07:40:48.225Z,492
2017-10-28T07:41:28.531Z,492
2017-10-28T07:42:09.027Z,504
2017-10-28T07:42:49.525Z,492
2017-10-28T07:43:29.858Z,500
2017-10-28T07:44:10.316Z,504
2017-10-28T07:44:50.812Z,480
2017-10-28T07:45:31.186Z,492
2017-10-28T07:46:11.707Z,484
2017-10-28T07:46:52.041Z,460
2017-10-28T07:47:32.557Z,440
2017-10-28T07:48:13.103Z,480
2017-10-28T07:48:53.819Z,536
2017-10-28T07:49:34.313Z,580
2017-10-28T07:50:14.923Z,604
2017-10-28T07:50:56.577Z,580
2017-10-28T07:51:38.700Z,540
2017-10-28T07:52:19.073Z,536
2017-10-28T07:52:59.635Z,524
2017-10-28T07:53:40.751Z,512
2017-10-28T07:54:21.683Z,448
2017-10-28T07:55:02.074Z,344
2017-10-28T07:55:42.608Z,320
2017-10-28T07:56:22.886Z,344
2017-10-28T07:57:04.208Z,368
2017-10-28T07:57:44.601Z,344
2017-10-28T07:58:25.596Z,340
2017-10-28T07:59:06.197Z,340
2017-10-28T07:59:46.633Z,364
2017-10-28T08:00:27.112Z,404
2017-10-28T08:01:07.641Z,476
2017-10-28T08:01:48.032Z,584
2017-10-28T08:02:29.079Z,632
2017-10-28T08:03:09.599Z,584
2017-10-28T08:03:50.107Z,488
2017-10-28T08:04:31.436Z,476
2017-10-28T08:05:12.250Z,484
2017-10-28T08:05:52.910Z,364
2017-10-28T08:06:33.916Z,272
2017-10-28T08:07:14.339Z,252
2017-10-28T08:07:54.842Z,248
2017-10-28T08:08:35.729Z,276
2017-10-28T08:09:17.044Z,300
2017-10-28T08:09:57.380Z,328
2017-10-28T08:10:37.907Z,300
2017-10-28T08:11:19.008Z,324
2017-10-28T08:11:59.925Z,348
2017-10-28T08:12:40.871Z,344
2017-10-28T08:13:22.376Z,364
2017-10-28T08:14:03.915Z,360
2017-10-28T08:14:44.938Z,372
2017-10-28T08:15:25.589Z,412
2017-10-28T08:16:06.750Z,400
2017-10-28T08:16:47.482Z,412
2017-10-28T08:17:28.895Z,460
2017-10-28T08:18:11.261Z,452
2017-10-28T08:18:51.745Z,428
2017-10-28T08:19:33.586Z,448
2017-10-28T08:20:14.218Z,492
2017-10-28T08:20:55.033Z,512
2017-10-28T08:21:36.342Z,412
2017-10-28T08:22:17.171Z,492
2017-10-28T08:22:58.801Z,512
2017-10-28T08:23:39.050Z,500
2017-10-28T08:24:20.164Z,536
2017-10-28T08:31:20.506Z,564
2017-10-28T08:32:12.516Z,540
2017-10-28T08:34:41.591Z,920
2017-10-28T08:35:24.284Z,1004
2017-10-28T08:36:04.523Z,984
2017-10-28T08:36:44.945Z,940
2017-10-28T08:37:27.133Z,1020
2017-10-28T08:38:07.502Z,1052
2017-10-28T08:38:48.913Z,964
2017-10-28T08:39:30.238Z,932
2017-10-28T08:40:11.504Z,1016
2017-10-28T08:40:51.434Z,972
2017-10-28T08:41:31.898Z,1032
2017-10-28T08:42:13.430Z,1188
2017-10-28T08:42:54.486Z,1312
2017-10-28T08:43:35.552Z,1396
2017-10-28T08:44:16.092Z,1488
2017-10-28T08:44:57.477Z,1540
2017-10-28T08:45:37.960Z,1564
2017-10-28T08:46:18.314Z,1576
2017-10-28T08:46:58.658Z,1616
2017-10-28T08:47:39.343Z,1620
2017-10-28T08:48:19.660Z,1580
2017-10-28T08:49:01.879Z,1536
2017-10-28T08:49:42.286Z,1524
2017-10-28T08:50:23.104Z,1576
2017-10-28T08:51:03.534Z,1588
2017-10-28T08:51:44.086Z,1560
2017-10-28T08:52:24.469Z,1576
2017-10-28T08:53:05.192Z,1572
2017-10-28T08:53:47.501Z,1632
2017-10-28T08:54:27.902Z,1680
2017-10-28T08:55:08.409Z,1656
2017-10-28T08:55:48.902Z,1640
2017-10-28T08:56:29.393Z,1600
2017-10-28T08:57:09.962Z,1612
2017-10-28T08:57:51.741Z,1708
2017-10-28T08:58:34.834Z,1800
2017-10-28T08:59:15.490Z,1740
2017-10-28T08:59:55.925Z,1504
2017-10-28T09:00:36.592Z,1252
2017-10-28T09:01:16.958Z,1092
2017-10-28T09:01:57.454Z,900
2017-10-28T09:02:38.261Z,812
2017-10-28T09:03:19.186Z,812
2017-10-28T09:03:59.746Z,752
2017-10-28T09:04:41.026Z,720
2017-10-28T09:05:21.361Z,668
2017-10-28T09:06:01.958Z,624
2017-10-28T09:06:43.479Z,592
2017-10-28T09:07:26.029Z,580
2017-10-28T09:08:06.435Z,512
2017-10-28T09:08:47.515Z,528
2017-10-28T09:09:28.352Z,500
2017-10-28T09:10:09.890Z,460
2017-10-28T09:10:50.917Z,484
2017-10-28T09:11:31.588Z,496
2017-10-28T09:12:12.203Z,444
2017-10-28T09:12:57.724Z,436
2017-10-28T09:16:31.687Z,508
2017-10-28T09:17:11.839Z,544
2017-10-28T09:17:58.449Z,496
2017-10-28T09:18:38.811Z,564
2017-10-28T09:19:20.122Z,652
2017-10-28T09:20:00.593Z,704
2017-10-28T09:20:41.537Z,672
2017-10-28T09:21:22.481Z,788
2017-10-28T09:22:05.132Z,836
2017-10-28T09:22:46.671Z,956
2017-10-28T09:23:27.134Z,1004
2017-10-28T09:24:07.889Z,1016
2017-10-28T09:24:48.399Z,972
2017-10-28T09:25:28.772Z,908
2017-10-28T09:26:09.211Z,872
2017-10-28T09:26:50.311Z,788
2017-10-28T09:27:30.478Z,736
2017-10-28T09:28:10.890Z,744
2017-10-28T09:28:51.362Z,752
2017-10-28T09:29:31.753Z,764
2017-10-28T09:30:12.360Z,792
2017-10-28T09:30:52.973Z,756
2017-10-28T09:31:33.516Z,720
2017-10-28T09:32:14.475Z,648
2017-10-28T09:32:54.341Z,588
2017-10-28T09:33:34.771Z,616
2017-10-28T09:34:15.151Z,608
2017-10-28T09:34:55.668Z,600
2017-10-28T09:35:36.125Z,660
2017-10-28T09:36:16.583Z,720
2017-10-28T09:36:57.056Z,752
2017-10-28T09:37:38.194Z,736
2017-10-28T09:44:47.170Z,644
2017-10-28T09:45:27.277Z,720
2017-10-28T09:46:07.799Z,688
2017-10-28T09:46:48.503Z,612
2017-10-28T09:47:29.065Z,640
2017-10-28T09:48:09.545Z,648
2017-10-28T09:48:49.973Z,676
2017-10-28T09:49:30.551Z,608
2017-10-28T09:50:10.938Z,628
2017-10-28T09:50:51.361Z,640
2017-10-28T09:51:31.757Z,680
2017-10-28T09:52:12.111Z,724
2017-10-28T09:52:52.690Z,636
2017-10-28T09:53:33.322Z,676
2017-10-28T09:54:13.811Z,760
2017-10-28T09:54:54.821Z,788
2017-10-28T09:55:34.948Z,840
2017-10-28T09:56:15.386Z,872
2017-10-28T09:56:55.756Z,852
2017-10-28T09:57:36.245Z,840
2017-10-28T09:58:16.694Z,792
2017-10-28T09:58:57.365Z,852
2017-10-28T09:59:37.801Z,836
2017-10-28T10:00:18.164Z,812
2017-10-28T10:00:58.541Z,764
2017-10-28T10:01:38.937Z,764
2017-10-28T10:02:19.325Z,712
2017-10-28T10:41:40.145Z,612
2017-10-28T10:42:21.407Z,624
2017-10-28T10:43:01.882Z,604
2017-10-28T10:43:42.278Z,664
2017-10-28T10:44:22.650Z,740
2017-10-28T10:45:03.228Z,748
2017-10-28T10:45:43.683Z,740
2017-10-28T10:46:24.041Z,712
2017-10-28T10:47:04.388Z,760
2017-10-28T10:47:44.824Z,776
2017-10-28T10:48:26.581Z,712
2017-10-28T10:49:06.596Z,672
2017-10-28T10:49:47.626Z,696
2017-10-28T10:50:31.074Z,772
2017-10-28T10:51:11.770Z,644
2017-10-28T10:51:52.164Z,552
2017-10-28T10:52:32.687Z,620
2017-10-28T10:53:13.061Z,580
2017-10-28T10:53:53.454Z,568
2017-10-28T10:54:33.913Z,644
2017-10-28T10:55:14.333Z,644
2017-10-28T10:55:54.850Z,632
2017-10-28T10:56:35.181Z,640
2017-10-28T10:57:15.629Z,604
2017-10-28T10:57:56.015Z,656
2017-10-28T10:58:36.424Z,840
2017-10-28T10:59:16.852Z,896
2017-10-28T10:59:57.372Z,912
2017-10-28T11:00:37.917Z,736
2017-10-28T11:01:18.261Z,712
2017-10-28T11:01:58.608Z,892
2017-10-28T11:02:39.091Z,700
2017-10-28T11:03:19.459Z,768
2017-10-28T11:03:59.857Z,680
2017-10-28T11:04:40.291Z,724
2017-10-28T11:05:20.854Z,732
2017-10-28T11:06:01.232Z,840
2017-10-28T11:06:41.543Z,808
2017-10-28T11:07:21.988Z,980
2017-10-28T11:08:02.388Z,1016
2017-10-28T11:08:42.958Z,972
2017-10-28T11:09:23.256Z,1084
2017-10-28T11:10:03.655Z,968
2017-10-28T11:10:44.249Z,1016
2017-10-28T11:11:24.598Z,1044
2017-10-28T11:12:05.067Z,932
2017-10-28T11:12:45.545Z,1016
2017-10-28T11:13:25.958Z,1012
2017-10-28T11:14:06.283Z,912
2017-10-28T11:14:46.725Z,1008
2017-10-28T11:15:27.908Z,1048
2017-10-28T11:16:08.279Z,1064
2017-10-28T11:16:48.777Z,1104